sensor_id;sensor_type;location;lat;lon;timestamp;temperature;humidity
9201;DHT22;4635;48.686;9.008;2022-10-22T00:01:06;11.80;99.90
9201;DHT22;4635;48.686;9.008;2022-10-22T00:03:40;11.80;99.90
9201;DHT22;4635;48.686;9.008;2022-10-22T00:06:13;11.80;99.90
9201;DHT22;4635;48.686;9.008;2022-10-22T00:08:48;11.80;99.90
9201;DHT22;4635;48.686;9.008;2022-10-22T00:11:26;11.80;99.90
9201;DHT22;4635;48.686;9.008;2022-10-22T00:14:02;11.80;99.90
9201;DHT22;4635;48.686;9.008;2022-10-22T00:16:36;11.80;99.90
9201;DHT22;4635;48.686;9.008;2022-10-22T00:19:11;11.80;99.90
9201;DHT22;4635;48.686;9.008;2022-10-22T00:21:46;11.80;99.90
9201;DHT22;4635;48.686;9.008;2022-10-22T00:24:21;11.80;99.90
9201;DHT22;4635;48.686;9.008;2022-10-22T00:27:00;11.80;99.90
9201;DHT22;4635;48.686;9.008;2022-10-22T00:29:39;11.80;99.90
9201;DHT22;4635;48.686;9.008;2022-10-22T00:32:18;11.80;99.90
9201;DHT22;4635;48.686;9.008;2022-10-22T00:34:54;11.80;99.90
9201;DHT22;4635;48.686;9.008;2022-10-22T00:37:33;11.80;99.90
9201;DHT22;4635;48.686;9.008;2022-10-22T00:40:09;11.80;99.90
9201;DHT22;4635;48.686;9.008;2022-10-22T00:42:48;11.70;99.90
9201;DHT22;4635;48.686;9.008;2022-10-22T00:45:25;11.70;99.90
9201;DHT22;4635;48.686;9.008;2022-10-22T00:48:02;11.70;99.90
9201;DHT22;4635;48.686;9.008;2022-10-22T00:50:40;11.70;99.90
9201;DHT22;4635;48.686;9.008;2022-10-22T00:53:18;11.70;99.90
9201;DHT22;4635;48.686;9.008;2022-10-22T00:55:53;11.70;99.90
9201;DHT22;4635;48.686;9.008;2022-10-22T00:58:35;11.70;99.90
9201;DHT22;4635;48.686;9.008;2022-10-22T01:01:11;11.70;99.90
9201;DHT22;4635;48.686;9.008;2022-10-22T01:03:54;11.70;99.90
9201;DHT22;4635;48.686;9.008;2022-10-22T01:06:31;11.80;99.90
9201;DHT22;4635;48.686;9.008;2022-10-22T01:09:15;11.80;99.90
9201;DHT22;4635;48.686;9.008;2022-10-22T01:12:00;11.80;99.90
9201;DHT22;4635;48.686;9.008;2022-10-22T01:14:49;11.80;99.90
9201;DHT22;4635;48.686;9.008;2022-10-22T01:17:30;11.70;99.90
9201;DHT22;4635;48.686;9.008;2022-10-22T01:20:14;11.70;99.90
9201;DHT22;4635;48.686;9.008;2022-10-22T01:23:01;11.80;99.90
9201;DHT22;4635;48.686;9.008;2022-10-22T01:25:49;11.80;99.90
9201;DHT22;4635;48.686;9.008;2022-10-22T01:31:21;11.70;99.90
9201;DHT22;4635;48.686;9.008;2022-10-22T01:33:58;11.70;99.90
9201;DHT22;4635;48.686;9.008;2022-10-22T01:36:34;11.70;99.90
9201;DHT22;4635;48.686;9.008;2022-10-22T01:39:17;11.70;99.90
9201;DHT22;4635;48.686;9.008;2022-10-22T01:42:02;11.70;99.90
9201;DHT22;4635;48.686;9.008;2022-10-22T01:44:43;11.80;99.90
9201;DHT22;4635;48.686;9.008;2022-10-22T01:47:35;11.70;99.90
9201;DHT22;4635;48.686;9.008;2022-10-22T01:53:48;11.70;99.90
9201;DHT22;4635;48.686;9.008;2022-10-22T01:56:42;11.70;99.90
9201;DHT22;4635;48.686;9.008;2022-10-22T01:59:30;11.70;99.90
9201;DHT22;4635;48.686;9.008;2022-10-22T02:02:15;11.70;99.90
9201;DHT22;4635;48.686;9.008;2022-10-22T02:04:59;11.70;99.90
9201;DHT22;4635;48.686;9.008;2022-10-22T02:07:38;11.70;99.90
9201;DHT22;4635;48.686;9.008;2022-10-22T02:10:13;11.60;99.90
9201;DHT22;4635;48.686;9.008;2022-10-22T02:12:52;11.60;99.90
9201;DHT22;4635;48.686;9.008;2022-10-22T02:15:29;11.60;99.90
9201;DHT22;4635;48.686;9.008;2022-10-22T02:18:09;11.60;99.90
9201;DHT22;4635;48.686;9.008;2022-10-22T02:20:52;11.60;99.90
9201;DHT22;4635;48.686;9.008;2022-10-22T02:23:33;11.60;99.90
9201;DHT22;4635;48.686;9.008;2022-10-22T02:26:10;11.60;99.90
9201;DHT22;4635;48.686;9.008;2022-10-22T02:28:57;11.60;99.90
9201;DHT22;4635;48.686;9.008;2022-10-22T02:31:35;11.60;99.90
9201;DHT22;4635;48.686;9.008;2022-10-22T02:34:16;11.60;99.90
9201;DHT22;4635;48.686;9.008;2022-10-22T02:37:01;11.60;99.90
9201;DHT22;4635;48.686;9.008;2022-10-22T02:39:43;11.70;99.90
9201;DHT22;4635;48.686;9.008;2022-10-22T02:42:19;11.70;99.90
9201;DHT22;4635;48.686;9.008;2022-10-22T02:44:56;11.70;99.90
9201;DHT22;4635;48.686;9.008;2022-10-22T02:47:37;11.70;99.90
9201;DHT22;4635;48.686;9.008;2022-10-22T02:50:15;11.60;99.90
9201;DHT22;4635;48.686;9.008;2022-10-22T02:52:57;11.70;99.90
9201;DHT22;4635;48.686;9.008;2022-10-22T02:55:33;11.60;99.90
9201;DHT22;4635;48.686;9.008;2022-10-22T02:58:11;11.70;99.90
9201;DHT22;4635;48.686;9.008;2022-10-22T03:00:48;11.60;99.90
9201;DHT22;4635;48.686;9.008;2022-10-22T03:03:26;11.60;99.90
9201;DHT22;4635;48.686;9.008;2022-10-22T03:06:02;11.60;99.90
9201;DHT22;4635;48.686;9.008;2022-10-22T03:08:39;11.60;99.90
9201;DHT22;4635;48.686;9.008;2022-10-22T03:11:14;11.70;99.90
9201;DHT22;4635;48.686;9.008;2022-10-22T03:13:49;11.70;99.90
9201;DHT22;4635;48.686;9.008;2022-10-22T03:16:26;11.70;99.90
9201;DHT22;4635;48.686;9.008;2022-10-22T03:19:00;11.70;99.90
9201;DHT22;4635;48.686;9.008;2022-10-22T03:21:38;11.70;99.90
9201;DHT22;4635;48.686;9.008;2022-10-22T03:24:19;11.70;99.90
9201;DHT22;4635;48.686;9.008;2022-10-22T03:26:56;11.70;99.90
9201;DHT22;4635;48.686;9.008;2022-10-22T03:29:33;11.70;99.90
9201;DHT22;4635;48.686;9.008;2022-10-22T03:32:10;11.70;99.90
9201;DHT22;4635;48.686;9.008;2022-10-22T03:34:45;11.70;99.90
9201;DHT22;4635;48.686;9.008;2022-10-22T03:37:21;11.70;99.90
9201;DHT22;4635;48.686;9.008;2022-10-22T03:40:00;11.70;99.90
9201;DHT22;4635;48.686;9.008;2022-10-22T03:42:35;11.60;99.90
9201;DHT22;4635;48.686;9.008;2022-10-22T03:45:11;11.70;99.90
9201;DHT22;4635;48.686;9.008;2022-10-22T03:47:46;11.60;99.90
9201;DHT22;4635;48.686;9.008;2022-10-22T03:50:24;11.60;99.90
9201;DHT22;4635;48.686;9.008;2022-10-22T03:53:03;11.60;99.90
9201;DHT22;4635;48.686;9.008;2022-10-22T03:55:45;11.60;99.90
9201;DHT22;4635;48.686;9.008;2022-10-22T03:58:22;11.60;99.90
9201;DHT22;4635;48.686;9.008;2022-10-22T04:00:57;11.60;99.90
9201;DHT22;4635;48.686;9.008;2022-10-22T04:03:38;11.60;99.90
9201;DHT22;4635;48.686;9.008;2022-10-22T04:06:14;11.60;99.90
9201;DHT22;4635;48.686;9.008;2022-10-22T04:08:49;11.50;99.90
9201;DHT22;4635;48.686;9.008;2022-10-22T04:11:29;11.50;99.90
9201;DHT22;4635;48.686;9.008;2022-10-22T04:14:03;11.50;99.90
9201;DHT22;4635;48.686;9.008;2022-10-22T04:16:40;11.50;99.90
9201;DHT22;4635;48.686;9.008;2022-10-22T04:19:15;11.50;99.90
9201;DHT22;4635;48.686;9.008;2022-10-22T04:21:50;11.50;99.90
9201;DHT22;4635;48.686;9.008;2022-10-22T04:24:25;11.50;99.90
9201;DHT22;4635;48.686;9.008;2022-10-22T04:27:06;11.50;99.90
9201;DHT22;4635;48.686;9.008;2022-10-22T04:29:44;11.50;99.90
9201;DHT22;4635;48.686;9.008;2022-10-22T04:32:20;11.40;99.90
9201;DHT22;4635;48.686;9.008;2022-10-22T04:34:56;11.50;99.90
9201;DHT22;4635;48.686;9.008;2022-10-22T04:37:34;11.50;99.90
9201;DHT22;4635;48.686;9.008;2022-10-22T04:40:10;11.50;99.90
9201;DHT22;4635;48.686;9.008;2022-10-22T04:42:51;11.50;99.90
9201;DHT22;4635;48.686;9.008;2022-10-22T04:45:25;11.50;99.90
9201;DHT22;4635;48.686;9.008;2022-10-22T04:48:03;11.40;99.90
9201;DHT22;4635;48.686;9.008;2022-10-22T04:50:42;11.40;99.90
9201;DHT22;4635;48.686;9.008;2022-10-22T04:53:16;11.50;99.90
9201;DHT22;4635;48.686;9.008;2022-10-22T04:55:53;11.50;99.90
9201;DHT22;4635;48.686;9.008;2022-10-22T04:58:31;11.50;99.90
9201;DHT22;4635;48.686;9.008;2022-10-22T05:01:16;11.50;99.90
9201;DHT22;4635;48.686;9.008;2022-10-22T05:03:55;11.50;99.90
9201;DHT22;4635;48.686;9.008;2022-10-22T05:06:33;11.50;99.90
9201;DHT22;4635;48.686;9.008;2022-10-22T05:09:16;11.50;99.90
9201;DHT22;4635;48.686;9.008;2022-10-22T05:11:53;11.50;99.90
9201;DHT22;4635;48.686;9.008;2022-10-22T05:14:31;11.50;99.90
9201;DHT22;4635;48.686;9.008;2022-10-22T05:17:04;11.50;99.90
9201;DHT22;4635;48.686;9.008;2022-10-22T05:19:43;11.50;99.90
9201;DHT22;4635;48.686;9.008;2022-10-22T05:22:20;11.50;99.90
9201;DHT22;4635;48.686;9.008;2022-10-22T05:24:57;11.40;99.90
9201;DHT22;4635;48.686;9.008;2022-10-22T05:27:34;11.40;99.90
9201;DHT22;4635;48.686;9.008;2022-10-22T05:30:16;11.40;99.90
9201;DHT22;4635;48.686;9.008;2022-10-22T05:32:51;11.30;99.90
9201;DHT22;4635;48.686;9.008;2022-10-22T05:35:29;11.40;99.90
9201;DHT22;4635;48.686;9.008;2022-10-22T05:38:07;11.40;99.90
9201;DHT22;4635;48.686;9.008;2022-10-22T05:41:02;11.50;99.90
9201;DHT22;4635;48.686;9.008;2022-10-22T05:43:41;11.40;99.90
9201;DHT22;4635;48.686;9.008;2022-10-22T05:46:19;11.40;99.90
9201;DHT22;4635;48.686;9.008;2022-10-22T05:49:02;11.50;99.90
9201;DHT22;4635;48.686;9.008;2022-10-22T05:51:50;11.40;99.90
9201;DHT22;4635;48.686;9.008;2022-10-22T05:54:39;11.40;99.90
9201;DHT22;4635;48.686;9.008;2022-10-22T05:57:23;11.40;99.90
9201;DHT22;4635;48.686;9.008;2022-10-22T06:00:03;11.40;99.90
9201;DHT22;4635;48.686;9.008;2022-10-22T06:03:10;11.40;99.90
9201;DHT22;4635;48.686;9.008;2022-10-22T06:05:59;11.40;99.90
9201;DHT22;4635;48.686;9.008;2022-10-22T06:08:39;11.50;99.90
9201;DHT22;4635;48.686;9.008;2022-10-22T06:11:27;11.50;99.90
9201;DHT22;4635;48.686;9.008;2022-10-22T06:14:15;11.50;99.90
9201;DHT22;4635;48.686;9.008;2022-10-22T06:17:00;11.60;99.90
9201;DHT22;4635;48.686;9.008;2022-10-22T06:19:46;11.60;99.90
9201;DHT22;4635;48.686;9.008;2022-10-22T06:22:25;11.50;99.90
9201;DHT22;4635;48.686;9.008;2022-10-22T06:25:01;11.80;99.90
9201;DHT22;4635;48.686;9.008;2022-10-22T06:27:49;11.80;99.90
9201;DHT22;4635;48.686;9.008;2022-10-22T06:30:38;11.90;99.90
9201;DHT22;4635;48.686;9.008;2022-10-22T06:33:15;12.00;99.90
9201;DHT22;4635;48.686;9.008;2022-10-22T06:36:06;12.00;99.90
9201;DHT22;4635;48.686;9.008;2022-10-22T06:38:44;12.00;99.90
9201;DHT22;4635;48.686;9.008;2022-10-22T06:41:22;12.10;99.90
9201;DHT22;4635;48.686;9.008;2022-10-22T06:44:00;12.20;99.90
9201;DHT22;4635;48.686;9.008;2022-10-22T06:46:50;12.20;99.90
9201;DHT22;4635;48.686;9.008;2022-10-22T06:49:34;12.20;99.90
9201;DHT22;4635;48.686;9.008;2022-10-22T06:52:20;12.20;99.90
9201;DHT22;4635;48.686;9.008;2022-10-22T06:54:58;12.00;99.90
9201;DHT22;4635;48.686;9.008;2022-10-22T06:57:40;12.20;99.90
9201;DHT22;4635;48.686;9.008;2022-10-22T07:00:18;12.20;99.90
9201;DHT22;4635;48.686;9.008;2022-10-22T07:03:08;12.30;99.90
9201;DHT22;4635;48.686;9.008;2022-10-22T07:05:54;12.30;99.90
9201;DHT22;4635;48.686;9.008;2022-10-22T07:08:45;12.40;99.90
9201;DHT22;4635;48.686;9.008;2022-10-22T07:11:24;12.50;95.20
9201;DHT22;4635;48.686;9.008;2022-10-22T07:14:13;12.50;99.90
9201;DHT22;4635;48.686;9.008;2022-10-22T07:16:50;12.60;99.90
9201;DHT22;4635;48.686;9.008;2022-10-22T07:19:29;12.60;99.90
9201;DHT22;4635;48.686;9.008;2022-10-22T07:22:06;12.60;99.90
9201;DHT22;4635;48.686;9.008;2022-10-22T07:25:07;12.60;99.90
9201;DHT22;4635;48.686;9.008;2022-10-22T07:27:48;12.60;94.60
9201;DHT22;4635;48.686;9.008;2022-10-22T07:30:33;12.70;99.90
9201;DHT22;4635;48.686;9.008;2022-10-22T07:33:16;12.60;99.90
9201;DHT22;4635;48.686;9.008;2022-10-22T07:36:02;12.70;99.90
9201;DHT22;4635;48.686;9.008;2022-10-22T07:38:39;12.70;81.10
9201;DHT22;4635;48.686;9.008;2022-10-22T07:41:30;12.50;64.30
9201;DHT22;4635;48.686;9.008;2022-10-22T07:44:08;12.80;54.50
9201;DHT22;4635;48.686;9.008;2022-10-22T07:46:52;12.80;97.40
9201;DHT22;4635;48.686;9.008;2022-10-22T07:49:31;12.80;99.90
9201;DHT22;4635;48.686;9.008;2022-10-22T07:52:10;12.90;99.90
9201;DHT22;4635;48.686;9.008;2022-10-22T07:54:48;13.00;99.90
9201;DHT22;4635;48.686;9.008;2022-10-22T07:57:30;12.70;99.90
9201;DHT22;4635;48.686;9.008;2022-10-22T08:00:06;13.20;83.00
9201;DHT22;4635;48.686;9.008;2022-10-22T08:02:43;13.30;25.00
9201;DHT22;4635;48.686;9.008;2022-10-22T08:05:21;13.50;96.40
9201;DHT22;4635;48.686;9.008;2022-10-22T08:08:10;13.70;87.20
9201;DHT22;4635;48.686;9.008;2022-10-22T08:10:54;13.90;1.00
9201;DHT22;4635;48.686;9.008;2022-10-22T08:13:50;14.10;1.00
9201;DHT22;4635;48.686;9.008;2022-10-22T08:16:28;14.70;1.00
9201;DHT22;4635;48.686;9.008;2022-10-22T08:19:15;16.20;1.00
9201;DHT22;4635;48.686;9.008;2022-10-22T08:22:00;18.60;1.00
9201;DHT22;4635;48.686;9.008;2022-10-22T08:24:48;20.20;1.00
9201;DHT22;4635;48.686;9.008;2022-10-22T08:27:35;19.90;1.00
9201;DHT22;4635;48.686;9.008;2022-10-22T08:30:34;20.10;1.00
9201;DHT22;4635;48.686;9.008;2022-10-22T08:33:18;20.60;1.00
9201;DHT22;4635;48.686;9.008;2022-10-22T08:36:09;20.90;1.00
9201;DHT22;4635;48.686;9.008;2022-10-22T08:38:55;21.40;1.00
9201;DHT22;4635;48.686;9.008;2022-10-22T08:41:46;22.80;1.00
9201;DHT22;4635;48.686;9.008;2022-10-22T08:45:02;23.50;17.70
9201;DHT22;4635;48.686;9.008;2022-10-22T08:48:01;23.60;6.20
9201;DHT22;4635;48.686;9.008;2022-10-22T08:50:55;23.30;15.90
9201;DHT22;4635;48.686;9.008;2022-10-22T08:53:37;23.90;19.80
9201;DHT22;4635;48.686;9.008;2022-10-22T08:56:15;23.90;22.40
9201;DHT22;4635;48.686;9.008;2022-10-22T08:59:15;24.20;22.20
9201;DHT22;4635;48.686;9.008;2022-10-22T09:02:07;24.20;21.30
9201;DHT22;4635;48.686;9.008;2022-10-22T09:05:03;24.00;22.20
9201;DHT22;4635;48.686;9.008;2022-10-22T09:07:46;24.20;22.60
9201;DHT22;4635;48.686;9.008;2022-10-22T09:10:30;24.60;17.70
9201;DHT22;4635;48.686;9.008;2022-10-22T09:13:15;25.00;16.50
9201;DHT22;4635;48.686;9.008;2022-10-22T09:16:29;25.10;13.50
9201;DHT22;4635;48.686;9.008;2022-10-22T09:19:24;26.20;10.30
9201;DHT22;4635;48.686;9.008;2022-10-22T09:22:21;25.70;5.10
9201;DHT22;4635;48.686;9.008;2022-10-22T09:25:21;25.50;6.70
9201;DHT22;4635;48.686;9.008;2022-10-22T09:28:05;24.00;14.00
9201;DHT22;4635;48.686;9.008;2022-10-22T09:30:51;23.20;18.50
9201;DHT22;4635;48.686;9.008;2022-10-22T09:33:37;23.90;16.70
9201;DHT22;4635;48.686;9.008;2022-10-22T09:36:26;24.60;13.30
9201;DHT22;4635;48.686;9.008;2022-10-22T09:39:36;25.10;10.20
9201;DHT22;4635;48.686;9.008;2022-10-22T09:42:28;25.60;8.40
9201;DHT22;4635;48.686;9.008;2022-10-22T09:48:23;26.20;2.30
9201;DHT22;4635;48.686;9.008;2022-10-22T09:51:17;26.10;1.70
9201;DHT22;4635;48.686;9.008;2022-10-22T09:54:15;26.50;1.00
9201;DHT22;4635;48.686;9.008;2022-10-22T09:57:20;26.10;1.00
9201;DHT22;4635;48.686;9.008;2022-10-22T10:00:05;26.60;1.00
9201;DHT22;4635;48.686;9.008;2022-10-22T10:02:48;27.10;1.00
9201;DHT22;4635;48.686;9.008;2022-10-22T10:05:41;27.40;1.00
9201;DHT22;4635;48.686;9.008;2022-10-22T10:08:35;28.10;1.00
9201;DHT22;4635;48.686;9.008;2022-10-22T10:15:14;28.50;1.00
9201;DHT22;4635;48.686;9.008;2022-10-22T10:18:11;29.20;1.00
9201;DHT22;4635;48.686;9.008;2022-10-22T10:21:20;29.50;1.00
9201;DHT22;4635;48.686;9.008;2022-10-22T10:24:27;29.40;1.00
9201;DHT22;4635;48.686;9.008;2022-10-22T10:27:30;30.50;1.00
9201;DHT22;4635;48.686;9.008;2022-10-22T10:30:26;30.20;1.00
9201;DHT22;4635;48.686;9.008;2022-10-22T10:33:21;29.70;1.00
9201;DHT22;4635;48.686;9.008;2022-10-22T10:36:17;27.40;1.00
9201;DHT22;4635;48.686;9.008;2022-10-22T10:39:15;24.90;1.00
9201;DHT22;4635;48.686;9.008;2022-10-22T10:42:16;22.70;4.10
9201;DHT22;4635;48.686;9.008;2022-10-22T10:45:39;20.90;26.60
9201;DHT22;4635;48.686;9.008;2022-10-22T10:48:59;19.80;51.90
9201;DHT22;4635;48.686;9.008;2022-10-22T10:51:56;19.30;69.70
9201;DHT22;4635;48.686;9.008;2022-10-22T10:54:53;18.90;77.60
9201;DHT22;4635;48.686;9.008;2022-10-22T10:57:42;18.80;77.90
9201;DHT22;4635;48.686;9.008;2022-10-22T11:00:45;18.70;81.50
9201;DHT22;4635;48.686;9.008;2022-10-22T11:03:46;18.80;78.00
9201;DHT22;4635;48.686;9.008;2022-10-22T11:06:35;19.00;84.90
9201;DHT22;4635;48.686;9.008;2022-10-22T11:09:26;19.00;86.10
9201;DHT22;4635;48.686;9.008;2022-10-22T11:12:09;18.90;78.30
9201;DHT22;4635;48.686;9.008;2022-10-22T11:15:06;19.10;81.80
9201;DHT22;4635;48.686;9.008;2022-10-22T11:18:15;19.50;72.40
9201;DHT22;4635;48.686;9.008;2022-10-22T11:21:17;19.90;60.80
9201;DHT22;4635;48.686;9.008;2022-10-22T11:24:15;20.00;56.80
9201;DHT22;4635;48.686;9.008;2022-10-22T11:27:29;19.70;58.50
9201;DHT22;4635;48.686;9.008;2022-10-22T11:30:18;19.60;53.20
9201;DHT22;4635;48.686;9.008;2022-10-22T11:33:10;20.30;48.80
9201;DHT22;4635;48.686;9.008;2022-10-22T11:36:02;19.90;43.00
9201;DHT22;4635;48.686;9.008;2022-10-22T11:38:57;19.70;47.70
9201;DHT22;4635;48.686;9.008;2022-10-22T11:41:57;19.80;44.30
9201;DHT22;4635;48.686;9.008;2022-10-22T11:44:59;20.00;43.70
9201;DHT22;4635;48.686;9.008;2022-10-22T11:47:58;20.00;41.00
9201;DHT22;4635;48.686;9.008;2022-10-22T11:54:00;20.00;44.30
9201;DHT22;4635;48.686;9.008;2022-10-22T11:56:44;20.20;45.50
9201;DHT22;4635;48.686;9.008;2022-10-22T11:59:49;20.10;42.30
9201;DHT22;4635;48.686;9.008;2022-10-22T12:03:03;20.20;42.70
9201;DHT22;4635;48.686;9.008;2022-10-22T12:06:26;19.90;40.40
9201;DHT22;4635;48.686;9.008;2022-10-22T12:09:22;20.00;44.40
9201;DHT22;4635;48.686;9.008;2022-10-22T12:15:25;19.70;37.30
9201;DHT22;4635;48.686;9.008;2022-10-22T12:18:02;20.00;38.70
9201;DHT22;4635;48.686;9.008;2022-10-22T12:20:57;23.50;14.80
9201;DHT22;4635;48.686;9.008;2022-10-22T12:23:40;25.20;1.00
9201;DHT22;4635;48.686;9.008;2022-10-22T12:26:36;23.70;1.00
9201;DHT22;4635;48.686;9.008;2022-10-22T12:29:15;21.90;6.20
9201;DHT22;4635;48.686;9.008;2022-10-22T12:31:54;21.00;16.70
9201;DHT22;4635;48.686;9.008;2022-10-22T12:34:30;21.90;16.10
9201;DHT22;4635;48.686;9.008;2022-10-22T12:37:19;23.40;2.60
9201;DHT22;4635;48.686;9.008;2022-10-22T12:40:26;23.20;4.80
9201;DHT22;4635;48.686;9.008;2022-10-22T12:46:18;30.80;1.00
9201;DHT22;4635;48.686;9.008;2022-10-22T12:49:10;33.10;1.00
9201;DHT22;4635;48.686;9.008;2022-10-22T12:51:53;35.10;1.00
9201;DHT22;4635;48.686;9.008;2022-10-22T12:54:37;34.60;1.00
9201;DHT22;4635;48.686;9.008;2022-10-22T12:57:27;34.70;1.00
9201;DHT22;4635;48.686;9.008;2022-10-22T13:03:40;32.80;1.00
9201;DHT22;4635;48.686;9.008;2022-10-22T13:06:26;32.10;1.00
9201;DHT22;4635;48.686;9.008;2022-10-22T13:09:20;32.50;1.00
9201;DHT22;4635;48.686;9.008;2022-10-22T13:12:15;32.20;1.00
9201;DHT22;4635;48.686;9.008;2022-10-22T13:15:32;31.50;1.00
9201;DHT22;4635;48.686;9.008;2022-10-22T13:24:50;34.60;1.00
9201;DHT22;4635;48.686;9.008;2022-10-22T13:27:35;34.80;1.00
9201;DHT22;4635;48.686;9.008;2022-10-22T13:30:33;34.90;1.00
9201;DHT22;4635;48.686;9.008;2022-10-22T13:36:24;34.10;1.00
9201;DHT22;4635;48.686;9.008;2022-10-22T13:39:20;34.40;1.00
9201;DHT22;4635;48.686;9.008;2022-10-22T13:45:56;34.30;1.00
9201;DHT22;4635;48.686;9.008;2022-10-22T13:48:42;34.60;1.00
9201;DHT22;4635;48.686;9.008;2022-10-22T13:51:51;34.70;1.00
9201;DHT22;4635;48.686;9.008;2022-10-22T13:54:42;33.30;1.00
9201;DHT22;4635;48.686;9.008;2022-10-22T13:57:38;31.20;1.00
9201;DHT22;4635;48.686;9.008;2022-10-22T14:00:21;28.70;1.00
9201;DHT22;4635;48.686;9.008;2022-10-22T14:06:19;23.60;1.00
9201;DHT22;4635;48.686;9.008;2022-10-22T14:09:14;21.90;1.00
9201;DHT22;4635;48.686;9.008;2022-10-22T14:11:52;21.10;1.00
9201;DHT22;4635;48.686;9.008;2022-10-22T14:14:35;20.50;1.00
9201;DHT22;4635;48.686;9.008;2022-10-22T14:17:20;20.30;1.00
9201;DHT22;4635;48.686;9.008;2022-10-22T14:20:22;20.00;1.00
9201;DHT22;4635;48.686;9.008;2022-10-22T14:26:41;19.80;1.00
9201;DHT22;4635;48.686;9.008;2022-10-22T14:29:33;19.70;1.00
9201;DHT22;4635;48.686;9.008;2022-10-22T14:32:38;19.70;1.00
9201;DHT22;4635;48.686;9.008;2022-10-22T14:35:46;19.50;1.00
9201;DHT22;4635;48.686;9.008;2022-10-22T14:38:37;19.10;1.00
9201;DHT22;4635;48.686;9.008;2022-10-22T14:41:42;19.10;1.00
9201;DHT22;4635;48.686;9.008;2022-10-22T15:44:42;17.50;51.10
9201;DHT22;4635;48.686;9.008;2022-10-22T15:47:24;17.40;56.50
9201;DHT22;4635;48.686;9.008;2022-10-22T15:50:05;17.30;58.40
9201;DHT22;4635;48.686;9.008;2022-10-22T15:52:42;17.20;66.30
9201;DHT22;4635;48.686;9.008;2022-10-22T15:55:19;17.10;70.80
9201;DHT22;4635;48.686;9.008;2022-10-22T15:57:56;17.00;73.30
9201;DHT22;4635;48.686;9.008;2022-10-22T16:00:34;16.90;82.20
9201;DHT22;4635;48.686;9.008;2022-10-22T16:03:17;16.90;78.00
9201;DHT22;4635;48.686;9.008;2022-10-22T16:05:53;16.90;79.50
9201;DHT22;4635;48.686;9.008;2022-10-22T16:08:36;15.80;84.80
9201;DHT22;4635;48.686;9.008;2022-10-22T16:11:13;16.70;90.70
9201;DHT22;4635;48.686;9.008;2022-10-22T16:13:54;16.60;95.00
9201;DHT22;4635;48.686;9.008;2022-10-22T16:16:42;16.50;97.80
9201;DHT22;4635;48.686;9.008;2022-10-22T16:19:33;16.40;96.60
9201;DHT22;4635;48.686;9.008;2022-10-22T16:22:09;16.40;99.30
9201;DHT22;4635;48.686;9.008;2022-10-22T16:24:55;16.30;99.90
9201;DHT22;4635;48.686;9.008;2022-10-22T16:27:32;15.80;99.90
9201;DHT22;4635;48.686;9.008;2022-10-22T16:30:09;15.50;99.90
9201;DHT22;4635;48.686;9.008;2022-10-22T16:32:57;16.00;99.90
9201;DHT22;4635;48.686;9.008;2022-10-22T16:35:38;15.80;99.90
9201;DHT22;4635;48.686;9.008;2022-10-22T16:38:16;15.70;99.90
9201;DHT22;4635;48.686;9.008;2022-10-22T16:40:51;15.60;99.90
9201;DHT22;4635;48.686;9.008;2022-10-22T16:43:30;15.50;99.90
9201;DHT22;4635;48.686;9.008;2022-10-22T16:46:05;15.40;99.90
9201;DHT22;4635;48.686;9.008;2022-10-22T16:48:45;15.30;99.90
9201;DHT22;4635;48.686;9.008;2022-10-22T16:51:24;15.20;99.90
9201;DHT22;4635;48.686;9.008;2022-10-22T16:53:59;15.10;99.90
9201;DHT22;4635;48.686;9.008;2022-10-22T16:56:39;15.00;99.90
9201;DHT22;4635;48.686;9.008;2022-10-22T16:59:21;14.90;99.90
9201;DHT22;4635;48.686;9.008;2022-10-22T17:01:55;14.90;99.90
9201;DHT22;4635;48.686;9.008;2022-10-22T17:04:35;14.80;99.90
9201;DHT22;4635;48.686;9.008;2022-10-22T17:07:09;14.70;99.90
9201;DHT22;4635;48.686;9.008;2022-10-22T17:09:42;14.60;99.90
9201;DHT22;4635;48.686;9.008;2022-10-22T17:12:18;14.50;99.90
9201;DHT22;4635;48.686;9.008;2022-10-22T17:14:56;14.40;99.90
9201;DHT22;4635;48.686;9.008;2022-10-22T17:17:32;14.20;99.90
9201;DHT22;4635;48.686;9.008;2022-10-22T17:20:12;14.30;99.90
9201;DHT22;4635;48.686;9.008;2022-10-22T17:22:47;14.20;99.90
9201;DHT22;4635;48.686;9.008;2022-10-22T17:25:46;14.00;99.90
9201;DHT22;4635;48.686;9.008;2022-10-22T17:28:38;14.00;99.90
9201;DHT22;4635;48.686;9.008;2022-10-22T17:31:17;13.80;99.90
9201;DHT22;4635;48.686;9.008;2022-10-22T17:33:54;13.80;99.90
9201;DHT22;4635;48.686;9.008;2022-10-22T17:36:33;13.70;99.90
9201;DHT22;4635;48.686;9.008;2022-10-22T17:39:15;13.60;99.90
9201;DHT22;4635;48.686;9.008;2022-10-22T17:41:54;13.60;99.90
9201;DHT22;4635;48.686;9.008;2022-10-22T17:44:31;13.50;99.90
9201;DHT22;4635;48.686;9.008;2022-10-22T17:47:09;13.50;99.90
9201;DHT22;4635;48.686;9.008;2022-10-22T17:49:43;13.40;99.90
9201;DHT22;4635;48.686;9.008;2022-10-22T17:52:33;13.40;99.90
9201;DHT22;4635;48.686;9.008;2022-10-22T17:55:13;13.30;99.90
9201;DHT22;4635;48.686;9.008;2022-10-22T17:57:51;13.30;99.90
9201;DHT22;4635;48.686;9.008;2022-10-22T18:00:28;13.20;99.90
9201;DHT22;4635;48.686;9.008;2022-10-22T18:03:07;13.20;99.90
9201;DHT22;4635;48.686;9.008;2022-10-22T18:05:41;13.20;99.90
9201;DHT22;4635;48.686;9.008;2022-10-22T18:08:22;13.20;99.90
9201;DHT22;4635;48.686;9.008;2022-10-22T18:11:08;13.20;99.90
9201;DHT22;4635;48.686;9.008;2022-10-22T18:13:43;13.20;99.90
9201;DHT22;4635;48.686;9.008;2022-10-22T18:16:21;13.10;99.90
9201;DHT22;4635;48.686;9.008;2022-10-22T18:18:57;13.10;99.90
9201;DHT22;4635;48.686;9.008;2022-10-22T18:21:32;13.00;99.90
9201;DHT22;4635;48.686;9.008;2022-10-22T18:24:23;12.90;99.90
9201;DHT22;4635;48.686;9.008;2022-10-22T18:26:58;12.90;99.90
9201;DHT22;4635;48.686;9.008;2022-10-22T18:29:34;12.90;99.90
9201;DHT22;4635;48.686;9.008;2022-10-22T18:32:12;12.90;99.90
9201;DHT22;4635;48.686;9.008;2022-10-22T18:34:53;12.90;99.90
9201;DHT22;4635;48.686;9.008;2022-10-22T18:37:39;12.80;99.90
9201;DHT22;4635;48.686;9.008;2022-10-22T18:40:42;12.80;99.90
9201;DHT22;4635;48.686;9.008;2022-10-22T18:43:24;12.40;99.90
9201;DHT22;4635;48.686;9.008;2022-10-22T18:46:11;12.60;99.90
9201;DHT22;4635;48.686;9.008;2022-10-22T18:48:48;12.70;99.90
9201;DHT22;4635;48.686;9.008;2022-10-22T18:51:37;12.50;99.90
9201;DHT22;4635;48.686;9.008;2022-10-22T18:54:17;12.50;99.90
9201;DHT22;4635;48.686;9.008;2022-10-22T18:56:58;12.50;99.90
9201;DHT22;4635;48.686;9.008;2022-10-22T18:59:34;12.50;99.90
9201;DHT22;4635;48.686;9.008;2022-10-22T19:02:14;12.30;99.90
9201;DHT22;4635;48.686;9.008;2022-10-22T19:04:49;12.50;99.90
9201;DHT22;4635;48.686;9.008;2022-10-22T19:07:27;12.40;99.90
9201;DHT22;4635;48.686;9.008;2022-10-22T19:10:00;12.50;99.90
9201;DHT22;4635;48.686;9.008;2022-10-22T19:12:39;12.60;99.90
9201;DHT22;4635;48.686;9.008;2022-10-22T19:15:14;12.70;99.90
9201;DHT22;4635;48.686;9.008;2022-10-22T19:17:50;12.80;99.90
9201;DHT22;4635;48.686;9.008;2022-10-22T19:20:23;12.90;99.90
9201;DHT22;4635;48.686;9.008;2022-10-22T19:23:01;13.00;99.90
9201;DHT22;4635;48.686;9.008;2022-10-22T19:25:38;13.00;99.90
9201;DHT22;4635;48.686;9.008;2022-10-22T19:28:16;13.00;99.90
9201;DHT22;4635;48.686;9.008;2022-10-22T19:30:51;13.00;99.90
9201;DHT22;4635;48.686;9.008;2022-10-22T19:33:26;13.00;99.90
9201;DHT22;4635;48.686;9.008;2022-10-22T19:36:04;12.90;99.90
9201;DHT22;4635;48.686;9.008;2022-10-22T19:38:41;12.90;99.90
9201;DHT22;4635;48.686;9.008;2022-10-22T19:41:16;12.90;99.90